Time,TemperatureF,DewpointF,PressureIn,WindDirection,WindDirectionDegrees,WindSpeedMPH,WindSpeedGustMPH,Humidity,HourlyPrecipIn,Conditions,Clouds,dailyrainin,SoftwareType,DateUTC
2017-03-28 00:11:00,33.2,32.0,30.03,North,355,3.0,6.0,96,0.00,,,0.00,weatherlink.com 1.10,2017-03-28 04:11:00,
2017-03-28 00:26:00,33.2,32.0,30.03,NNE,27,3.0,11.0,96,0.00,,,0.00,weatherlink.com 1.10,2017-03-28 04:26:00,
2017-03-28 00:41:00,33.2,32.0,30.04,NE,34,1.0,11.0,96,0.00,,,0.00,weatherlink.com 1.10,2017-03-28 04:41:00,
2017-03-28 00:56:00,33.2,33.0,30.04,NNE,15,2.0,5.0,97,0.00,,,0.00,weatherlink.com 1.10,2017-03-28 04:56:00,
2017-03-28 01:11:00,33.1,32.0,30.03,NE,38,6.0,8.0,97,0.00,,,0.00,weatherlink.com 1.10,2017-03-28 05:11:00,
2017-03-28 01:26:00,33.1,32.0,30.04,NNE,13,2.0,8.0,97,0.00,,,0.00,weatherlink.com 1.10,2017-03-28 05:26:00,
2017-03-28 01:41:00,33.1,32.0,30.05,NNW,342,1.0,4.0,97,0.00,,,0.00,weatherlink.com 1.10,2017-03-28 05:41:00,
2017-03-28 01:56:00,33.1,32.0,30.04,NNW,342,5.0,9.0,97,0.00,,,0.00,weatherlink.com 1.10,2017-03-28 05:56:00,
2017-03-28 02:11:00,33.0,32.0,30.04,NE,47,4.0,9.0,97,0.00,,,0.00,weatherlink.com 1.10,2017-03-28 06:11:00,
2017-03-28 02:26:00,33.0,32.0,30.04,NNE,13,7.0,8.0,97,0.00,,,0.00,weatherlink.com 1.10,2017-03-28 06:26:00,
2017-03-28 02:41:00,33.0,32.0,30.04,NNE,18,3.0,6.0,97,0.00,,,0.00,weatherlink.com 1.10,2017-03-28 06:41:00,
2017-03-28 02:56:00,32.9,32.0,30.03,NNE,23,4.0,5.0,97,0.00,,,0.00,weatherlink.com 1.10,2017-03-28 06:56:00,
2017-03-28 03:11:00,32.9,32.0,30.04,North,11,1.0,5.0,96,0.00,,,0.00,weatherlink.com 1.10,2017-03-28 07:11:00,
2017-03-28 03:26:00,32.9,32.0,30.04,NNE,15,4.0,4.0,96,0.00,,,0.00,weatherlink.com 1.10,2017-03-28 07:26:00,
2017-03-28 03:41:00,32.8,32.0,30.03,NE,35,2.0,5.0,96,0.00,,,0.00,weatherlink.com 1.10,2017-03-28 07:41:00,
2017-03-28 04:11:00,32.8,32.0,30.03,NE,51,3.0,6.0,96,0.00,,,0.00,weatherlink.com 1.10,2017-03-28 08:11:00,
2017-03-28 04:26:00,32.8,32.0,30.03,NNE,21,4.0,7.0,96,0.00,,,0.00,weatherlink.com 1.10,2017-03-28 08:26:00,
2017-03-28 04:41:00,32.8,32.0,30.04,North,11,3.0,8.0,96,0.00,,,0.00,weatherlink.com 1.10,2017-03-28 08:41:00,
2017-03-28 04:56:00,32.7,32.0,30.03,North,11,2.0,8.0,96,0.00,,,0.00,weatherlink.com 1.10,2017-03-28 08:56:00,
2017-03-28 05:11:00,32.8,32.0,30.02,NE,38,4.0,10.0,96,0.00,,,0.00,weatherlink.com 1.10,2017-03-28 09:11:00,
2017-03-28 05:27:00,32.8,32.0,30.02,NE,35,6.0,10.0,96,0.00,,,0.00,weatherlink.com 1.10,2017-03-28 09:27:00,
2017-03-28 05:42:00,32.8,32.0,30.02,NE,45,1.0,10.0,96,0.00,,,0.00,weatherlink.com 1.10,2017-03-28 09:42:00,
2017-03-28 05:57:00,32.7,32.0,30.02,NE,38,3.0,9.0,96,0.00,,,0.00,weatherlink.com 1.10,2017-03-28 09:57:00,
2017-03-28 06:12:00,32.7,32.0,30.03,NE,50,2.0,6.0,96,0.00,,,0.00,weatherlink.com 1.10,2017-03-28 10:12:00,
2017-03-28 06:26:00,32.7,32.0,30.02,NE,49,5.0,7.0,96,0.00,,,0.00,weatherlink.com 1.10,2017-03-28 10:26:00,
2017-03-28 06:41:00,32.7,32.0,30.04,North,9,1.0,8.0,96,0.00,,,0.00,weatherlink.com 1.10,2017-03-28 10:41:00,
2017-03-28 06:56:00,32.8,32.0,30.04,NNE,32,0.0,3.0,96,0.00,,,0.00,weatherlink.com 1.10,2017-03-28 10:56:00,
2017-03-28 07:11:00,32.9,32.0,30.03,NE,48,3.0,7.0,96,0.00,,,0.00,weatherlink.com 1.10,2017-03-28 11:11:00,
2017-03-28 07:27:00,33.2,32.0,30.03,NE,36,4.0,9.0,96,0.00,,,0.00,weatherlink.com 1.10,2017-03-28 11:27:00,
2017-03-28 07:43:00,33.3,32.0,30.03,NNE,26,3.0,10.0,95,0.00,,,0.00,weatherlink.com 1.10,2017-03-28 11:43:00,
2017-03-28 07:57:00,33.5,32.0,30.03,ENE,60,5.0,10.0,95,0.00,,,0.00,weatherlink.com 1.10,2017-03-28 11:57:00,
2017-03-28 08:12:00,33.7,33.0,30.03,NE,49,3.0,7.0,95,0.00,,,0.00,weatherlink.com 1.10,2017-03-28 12:12:00,
2017-03-28 08:42:00,34.1,33.0,30.06,NE,40,0.0,4.0,94,0.00,,,0.00,weatherlink.com 1.10,2017-03-28 12:42:00,
2017-03-28 08:57:00,34.4,33.0,30.06,NNE,28,2.0,3.0,94,0.00,,,0.00,weatherlink.com 1.10,2017-03-28 12:57:00,
2017-03-28 09:12:00,34.4,33.0,30.05,ENE,69,4.0,6.0,93,0.00,,,0.00,weatherlink.com 1.10,2017-03-28 13:12:00,
2017-03-28 09:27:00,34.6,33.0,30.06,NE,38,0.0,6.0,93,0.00,,,0.00,weatherlink.com 1.10,2017-03-28 13:27:00,
2017-03-28 09:42:00,34.9,33.0,30.06,NNE,19,1.0,4.0,93,0.00,,,0.00,weatherlink.com 1.10,2017-03-28 13:42:00,
2017-03-28 09:57:00,35.0,33.0,30.07,ENE,63,0.0,3.0,92,0.00,,,0.00,weatherlink.com 1.10,2017-03-28 13:57:00,
2017-03-28 10:12:00,35.4,33.0,30.07,ENE,63,3.0,3.0,92,0.00,,,0.00,weatherlink.com 1.10,2017-03-28 14:12:00,